createdAt,value
2023-02-15T00:01:46.334Z,102318.09
2023-02-15T00:04:19.926Z,102312.25
2023-02-15T00:06:51.523Z,102305.13
2023-02-15T00:09:22.929Z,102310.94
2023-02-15T00:11:54.183Z,102302.00
2023-02-15T00:14:25.466Z,102320.97
2023-02-15T00:17:00.560Z,102309.66
2023-02-15T00:19:32.325Z,102309.94
2023-02-15T00:22:03.596Z,102312.69
2023-02-15T00:24:34.911Z,102306.59
2023-02-15T00:27:06.412Z,102297.06
2023-02-15T00:29:37.768Z,102302.53
2023-02-15T00:32:09.012Z,102288.34
2023-02-15T00:34:40.265Z,102301.88
2023-02-15T00:37:11.589Z,102291.19
2023-02-15T00:39:42.867Z,102273.63
2023-02-15T00:42:14.123Z,102293.28
2023-02-15T00:44:45.474Z,102271.94
2023-02-15T00:47:16.840Z,102283.72
2023-02-15T00:49:48.113Z,102276.69
2023-02-15T00:52:19.847Z,102270.44
2023-02-15T00:54:51.186Z,102262.94
2023-02-15T00:57:22.470Z,102277.97
2023-02-15T00:59:53.734Z,102229.66
2023-02-15T01:02:24.992Z,102275.00
2023-02-15T01:04:56.292Z,102256.91
2023-02-15T01:07:27.568Z,102267.19
2023-02-15T01:09:58.844Z,102272.09
2023-02-15T01:12:30.103Z,102236.00
2023-02-15T01:15:01.602Z,102256.84
2023-02-15T01:17:33.282Z,102272.25
2023-02-15T01:20:05.609Z,102266.59
2023-02-15T01:22:36.857Z,102267.88
2023-02-15T01:25:08.248Z,102270.84
2023-02-15T01:27:39.520Z,102263.69
2023-02-15T01:30:11.955Z,102245.81
2023-02-15T01:32:44.228Z,102253.09
2023-02-15T01:35:15.596Z,102257.50
2023-02-15T01:37:46.924Z,102246.31
2023-02-15T01:40:19.488Z,102251.97
2023-02-15T01:42:52.321Z,102248.84
2023-02-15T01:45:30.343Z,102256.13
2023-02-15T01:48:08.948Z,102261.66
2023-02-15T01:50:44.065Z,102257.63
2023-02-15T01:53:32.927Z,102246.47
2023-02-15T01:56:15.094Z,102246.59
2023-02-15T01:58:48.121Z,102245.88
2023-02-15T02:01:20.423Z,102234.56
2023-02-15T02:04:05.910Z,102227.59
2023-02-15T02:06:38.922Z,102219.44
2023-02-15T02:09:11.145Z,102224.69
2023-02-15T02:11:46.245Z,102224.63
2023-02-15T02:14:18.619Z,102214.09
2023-02-15T02:17:07.881Z,102189.31
2023-02-15T02:20:03.770Z,102204.56
2023-02-15T02:23:05.169Z,102184.06
2023-02-15T02:25:57.348Z,102183.13
2023-02-15T02:28:34.420Z,102200.84
2023-02-15T02:31:27.047Z,102193.78
2023-02-15T02:34:32.334Z,102187.41
2023-02-15T02:37:25.445Z,102175.38
2023-02-15T02:40:14.957Z,102193.78
2023-02-15T02:43:21.870Z,102182.03
2023-02-15T02:45:59.553Z,102169.09
2023-02-15T02:48:34.040Z,102177.72
2023-02-15T02:51:05.477Z,102159.53
2023-02-15T02:53:36.994Z,102182.19
2023-02-15T02:56:22.725Z,102164.75
2023-02-15T02:59:13.087Z,102179.56
2023-02-15T03:01:56.590Z,102151.81
2023-02-15T03:04:33.591Z,102172.16
2023-02-15T03:07:12.971Z,102148.94
2023-02-15T03:09:49.337Z,102145.22
2023-02-15T03:12:22.662Z,102165.50
2023-02-15T03:14:59.859Z,102163.41
2023-02-15T03:17:36.449Z,102167.47
2023-02-15T03:20:30.559Z,102163.63
2023-02-15T03:23:08.405Z,102159.84
2023-02-15T03:25:47.250Z,102143.53
2023-02-15T03:28:26.515Z,102159.84
2023-02-15T03:31:01.774Z,102156.41
2023-02-15T03:33:36.718Z,102152.22
2023-02-15T03:36:21.087Z,102152.34
2023-02-15T03:39:21.336Z,102154.34
2023-02-15T03:42:03.179Z,102144.00
2023-02-15T03:44:44.054Z,102135.47
2023-02-15T03:47:26.641Z,102140.31
2023-02-15T03:50:46.063Z,102083.47
2023-02-15T03:53:22.115Z,102130.38
2023-02-15T03:55:56.638Z,102130.31
2023-02-15T03:58:46.666Z,102120.41
2023-02-15T04:01:57.924Z,102125.19
2023-02-15T04:04:34.426Z,102126.91
2023-02-15T04:07:08.438Z,102124.94
2023-02-15T04:09:58.443Z,102136.09
2023-02-15T04:12:29.712Z,102133.22
2023-02-15T04:15:19.726Z,102119.78
2023-02-15T04:17:50.988Z,102118.69
2023-02-15T04:20:40.862Z,102113.19
2023-02-15T04:23:30.873Z,102057.50
2023-02-15T04:26:05.494Z,102097.38
2023-02-15T04:28:36.862Z,102121.97
2023-02-15T04:31:08.240Z,102113.00
2023-02-15T04:33:39.563Z,102129.81
2023-02-15T04:36:10.902Z,102126.13
2023-02-15T04:38:42.178Z,102129.50
2023-02-15T04:41:13.998Z,102123.31
2023-02-15T04:43:45.256Z,102124.00
2023-02-15T04:46:16.750Z,102117.81
2023-02-15T04:48:48.134Z,102109.63
2023-02-15T04:51:19.569Z,102104.34
2023-02-15T04:53:53.320Z,102106.88
2023-02-15T04:56:24.593Z,102083.66
2023-02-15T04:58:55.860Z,102105.72
2023-02-15T05:01:27.348Z,102097.75
2023-02-15T05:03:58.685Z,102080.84
2023-02-15T05:06:30.436Z,102095.28
2023-02-15T05:09:02.390Z,102089.22
2023-02-15T05:11:33.687Z,102069.28
2023-02-15T05:14:05.554Z,102094.31
2023-02-15T05:16:36.972Z,102091.56
2023-02-15T05:19:08.345Z,102083.59
2023-02-15T05:21:39.625Z,102047.50
2023-02-15T05:24:29.536Z,102094.38
2023-02-15T05:27:19.186Z,102089.84
2023-02-15T05:29:50.588Z,102087.91
2023-02-15T05:32:22.050Z,102069.69
2023-02-15T05:34:53.612Z,102076.03
2023-02-15T05:37:24.887Z,102081.66
2023-02-15T05:39:56.150Z,102047.84
2023-02-15T05:42:27.402Z,102071.28
2023-02-15T05:44:58.671Z,102057.06
2023-02-15T05:47:30.635Z,102067.72
2023-02-15T05:50:01.930Z,102067.66
2023-02-15T05:52:33.203Z,102041.06
2023-02-15T05:55:05.610Z,102054.53
2023-02-15T05:57:37.106Z,102053.63
2023-02-15T06:00:10.728Z,102042.22
2023-02-15T06:02:42.147Z,102043.03
2023-02-15T06:05:13.508Z,102010.13
2023-02-15T06:07:45.741Z,102032.19
2023-02-15T06:10:17.161Z,102031.09
2023-02-15T06:12:48.440Z,102049.63
2023-02-15T06:15:19.794Z,102048.59
2023-02-15T06:17:51.039Z,102053.47
2023-02-15T06:20:22.424Z,102040.97
2023-02-15T06:22:56.077Z,102045.91
2023-02-15T06:25:28.759Z,102054.38
2023-02-15T06:28:00.106Z,102046.78
2023-02-15T06:30:31.678Z,102052.00
2023-02-15T06:33:03.336Z,102033.91
2023-02-15T06:35:34.663Z,102063.34
2023-02-15T06:38:07.378Z,102052.69
2023-02-15T06:40:38.678Z,102051.78
2023-02-15T06:43:09.958Z,102057.69
2023-02-15T06:45:42.228Z,102063.72
2023-02-15T06:48:14.389Z,102071.63
2023-02-15T06:50:49.051Z,102069.91
2023-02-15T06:53:20.471Z,102064.69
2023-02-15T06:55:51.765Z,102057.81
2023-02-15T06:58:23.039Z,102041.00
2023-02-15T07:00:54.333Z,102040.31
2023-02-15T07:03:25.666Z,102037.63
2023-02-15T07:05:58.559Z,102050.66
2023-02-15T07:08:30.349Z,102032.78
2023-02-15T07:11:20.759Z,102051.53
2023-02-15T07:13:53.536Z,102055.13
2023-02-15T07:16:24.895Z,102067.88
2023-02-15T07:18:56.226Z,102039.94
2023-02-15T07:21:27.733Z,102071.41
2023-02-15T07:23:59.299Z,102063.25
2023-02-15T07:26:32.977Z,102050.59
2023-02-15T07:29:04.253Z,102056.22
2023-02-15T07:31:35.827Z,102049.63
2023-02-15T07:34:08.201Z,102039.06
2023-02-15T07:36:39.477Z,102036.28
2023-02-15T07:39:11.640Z,101980.44
2023-02-15T07:41:42.897Z,102043.81
2023-02-15T07:44:15.689Z,102028.41
2023-02-15T07:46:47.002Z,102033.88
2023-02-15T07:49:18.321Z,102023.66
2023-02-15T07:51:49.613Z,102022.25
2023-02-15T07:54:21.015Z,102020.09
2023-02-15T07:56:52.250Z,101998.28
2023-02-15T07:59:23.595Z,102002.59
2023-02-15T08:01:57.114Z,102002.94
2023-02-15T08:04:28.435Z,102001.66
2023-02-15T08:06:59.695Z,102006.34
2023-02-15T08:09:30.944Z,102004.84
2023-02-15T08:12:03.157Z,102001.69
2023-02-15T08:14:34.529Z,101988.56
2023-02-15T08:17:06.003Z,101991.41
2023-02-15T08:19:37.441Z,102008.59
2023-02-15T08:22:13.396Z,101988.13
2023-02-15T08:24:44.645Z,102015.75
2023-02-15T08:27:15.958Z,102004.50
2023-02-15T08:29:47.223Z,102007.38
2023-02-15T08:32:18.525Z,101994.41
2023-02-15T08:34:49.977Z,101990.84
2023-02-15T08:37:21.295Z,102007.22
2023-02-15T08:39:52.748Z,101998.13
2023-02-15T08:42:24.029Z,102001.28
2023-02-15T08:44:55.307Z,101992.16
2023-02-15T08:47:26.578Z,101992.47
2023-02-15T08:49:57.839Z,101984.81
2023-02-15T08:52:29.123Z,101992.13
2023-02-15T08:55:00.374Z,101991.56
2023-02-15T08:57:31.658Z,101984.94
2023-02-15T09:00:05.581Z,101971.19
2023-02-15T09:02:37.917Z,101982.34
2023-02-15T09:05:10.006Z,101981.06
2023-02-15T09:07:41.250Z,101985.19
2023-02-15T09:10:12.525Z,101990.09
2023-02-15T09:12:43.888Z,101979.22
2023-02-15T09:15:15.430Z,101969.03
2023-02-15T09:17:46.698Z,101983.53
2023-02-15T09:20:18.490Z,101987.41
2023-02-15T09:22:49.748Z,101977.88
2023-02-15T09:25:21.378Z,101971.03
2023-02-15T09:27:53.156Z,101965.78
2023-02-15T09:30:24.844Z,101974.31
2023-02-15T09:32:56.189Z,101965.88
2023-02-15T09:35:27.521Z,101963.66
2023-02-15T09:37:58.845Z,101982.66
2023-02-15T09:40:39.259Z,101974.97
2023-02-15T09:43:32.112Z,101975.41
2023-02-15T09:46:14.338Z,101976.69
2023-02-15T09:48:53.082Z,101969.78
2023-02-15T09:51:46.203Z,101973.50
2023-02-15T09:54:17.562Z,101964.16
2023-02-15T09:57:08.701Z,101959.03
2023-02-15T09:59:55.682Z,101966.22
2023-02-15T10:03:01.693Z,101970.88
2023-02-15T10:05:50.328Z,101973.56
2023-02-15T10:08:42.172Z,101968.41
2023-02-15T10:11:36.652Z,101975.66
2023-02-15T10:14:29.866Z,101968.66
2023-02-15T10:17:26.923Z,101959.94
2023-02-15T10:20:18.930Z,101962.72
2023-02-15T10:23:24.475Z,101961.06
2023-02-15T10:26:18.984Z,101962.97
2023-02-15T10:28:57.527Z,101966.53
2023-02-15T10:31:47.736Z,101965.81
2023-02-15T10:34:40.767Z,101967.91
2023-02-15T10:37:39.136Z,101967.22
2023-02-15T10:40:35.370Z,101975.38
2023-02-15T10:43:31.387Z,101967.53
2023-02-15T10:46:34.413Z,101955.19
2023-02-15T10:49:08.794Z,101960.59
2023-02-15T10:51:43.024Z,101961.69
2023-02-15T10:54:47.001Z,101957.50
2023-02-15T10:57:34.259Z,101955.94
2023-02-15T11:00:18.831Z,101942.75
2023-02-15T11:03:08.917Z,101949.13
2023-02-15T11:05:50.083Z,101943.88
2023-02-15T11:08:24.417Z,101943.91
2023-02-15T11:11:02.875Z,101933.22
2023-02-15T11:13:40.139Z,101941.25
2023-02-15T11:16:24.081Z,101922.75
2023-02-15T11:19:05.484Z,101944.06
2023-02-15T11:21:50.897Z,101936.19
2023-02-15T11:24:26.663Z,101939.75
2023-02-15T11:27:06.063Z,101934.50
2023-02-15T11:30:01.452Z,101930.06
2023-02-15T11:33:02.767Z,101923.94
2023-02-15T11:35:49.858Z,101910.72
2023-02-15T11:38:25.683Z,101907.25
2023-02-15T11:41:04.689Z,101912.59
2023-02-15T11:43:49.553Z,101904.66
2023-02-15T11:46:22.432Z,101921.50
2023-02-15T11:48:53.736Z,101914.41
2023-02-15T11:51:27.976Z,101907.31
2023-02-15T11:53:59.586Z,101902.91
2023-02-15T11:56:32.651Z,101887.88
2023-02-15T11:59:22.341Z,101891.41
2023-02-15T12:01:53.689Z,101885.25
2023-02-15T12:04:30.232Z,101869.31
2023-02-15T12:07:16.097Z,101868.44
2023-02-15T12:09:57.212Z,101863.13
2023-02-15T12:12:31.020Z,101853.38
2023-02-15T12:15:07.763Z,101862.22
2023-02-15T12:17:53.762Z,101858.66
2023-02-15T12:20:33.793Z,101854.22
2023-02-15T12:23:12.644Z,101855.97
2023-02-15T12:25:54.376Z,101852.41
2023-02-15T12:28:30.486Z,101852.38
2023-02-15T12:31:07.907Z,101830.28
2023-02-15T12:33:46.477Z,101842.59
2023-02-15T12:36:30.010Z,101817.78
2023-02-15T12:39:06.277Z,101835.47
2023-02-15T12:41:38.517Z,101831.91
2023-02-15T12:44:24.183Z,101823.03
2023-02-15T12:47:29.208Z,101832.78
2023-02-15T12:50:34.671Z,101820.34
2023-02-15T12:53:24.516Z,101827.38
2023-02-15T12:56:04.975Z,101805.28
2023-02-15T12:58:40.624Z,101816.69
2023-02-15T13:01:18.615Z,101811.25
2023-02-15T13:04:22.773Z,101804.94
2023-02-15T13:06:58.475Z,101814.66
2023-02-15T13:09:32.802Z,101810.97
2023-02-15T13:12:16.846Z,101768.59
2023-02-15T13:14:53.281Z,101803.97
2023-02-15T13:17:30.378Z,101809.34
2023-02-15T13:20:24.667Z,101788.06
2023-02-15T13:23:14.410Z,101803.81
2023-02-15T13:25:51.148Z,101800.19
2023-02-15T13:28:28.639Z,101805.47
2023-02-15T13:31:00.075Z,101805.44
2023-02-15T13:33:35.837Z,101797.47
2023-02-15T13:36:18.937Z,101791.28
2023-02-15T13:39:21.159Z,101804.50
2023-02-15T13:42:06.860Z,101800.09
2023-02-15T13:44:59.163Z,101794.88
2023-02-15T13:48:08.782Z,101790.47
2023-02-15T13:50:56.038Z,101779.84
2023-02-15T13:53:57.876Z,101785.13
2023-02-15T13:57:01.954Z,101780.63
2023-02-15T13:59:49.081Z,101778.00
2023-02-15T14:02:39.545Z,101775.31
2023-02-15T14:05:23.955Z,101771.66
2023-02-15T14:08:12.589Z,101767.91
2023-02-15T14:11:02.397Z,101762.38
2023-02-15T14:13:42.934Z,101758.66
2023-02-15T14:16:34.206Z,101756.81
2023-02-15T14:19:28.773Z,101729.38
2023-02-15T14:22:16.717Z,101754.03
2023-02-15T14:25:06.214Z,101752.34
2023-02-15T14:28:00.223Z,101757.81
2023-02-15T14:30:36.952Z,101759.66
2023-02-15T14:33:33.211Z,101751.78
2023-02-15T14:36:09.114Z,101757.34
2023-02-15T14:39:27.444Z,101754.81
2023-02-15T14:42:10.570Z,101732.81
2023-02-15T14:45:28.983Z,101747.81
2023-02-15T14:48:22.647Z,101748.72
2023-02-15T14:50:53.959Z,101752.31
2023-02-15T14:53:28.559Z,101749.63
2023-02-15T14:56:11.974Z,101755.91
2023-02-15T14:58:53.126Z,101754.16
2023-02-15T15:01:30.616Z,101723.38
2023-02-15T15:04:37.359Z,101704.88
2023-02-15T15:07:26.562Z,101718.19
2023-02-15T15:10:23.599Z,101743.00
2023-02-15T15:12:56.057Z,101749.28
2023-02-15T15:15:27.431Z,101746.63
2023-02-15T15:18:08.855Z,101746.66
2023-02-15T15:20:46.836Z,101749.38
2023-02-15T15:23:21.075Z,101744.09
2023-02-15T15:25:55.367Z,101731.72
2023-02-15T15:28:35.506Z,101740.63
2023-02-15T15:31:35.166Z,101743.31
2023-02-15T15:34:40.120Z,101738.06
2023-02-15T15:37:23.302Z,101725.78
2023-02-15T15:40:33.207Z,101732.91
2023-02-15T15:43:33.714Z,101729.41
2023-02-15T15:46:39.002Z,101725.03
2023-02-15T15:49:16.774Z,101725.94
2023-02-15T15:51:49.567Z,101723.31
2023-02-15T15:54:24.063Z,101731.28
2023-02-15T15:56:59.115Z,101719.78
2023-02-15T15:59:32.825Z,101713.66
2023-02-15T16:02:06.587Z,101716.31
2023-02-15T16:04:38.005Z,101688.84
2023-02-15T16:07:18.729Z,101710.06
2023-02-15T16:10:05.798Z,101708.28
2023-02-15T16:12:40.303Z,101702.97
2023-02-15T16:15:18.387Z,101696.75
2023-02-15T16:17:55.724Z,101710.00
2023-02-15T16:20:32.668Z,101703.78
2023-02-15T16:23:41.333Z,101701.13
2023-02-15T16:26:43.928Z,101702.84
2023-02-15T16:29:27.664Z,101696.59
2023-02-15T16:32:19.457Z,101705.38
2023-02-15T16:34:59.786Z,101706.16
2023-02-15T16:37:35.609Z,101692.88
2023-02-15T16:40:07.783Z,101691.94
2023-02-15T16:42:39.182Z,101690.09
2023-02-15T16:45:17.349Z,101673.22
2023-02-15T16:47:53.702Z,101676.72
2023-02-15T16:50:31.585Z,101671.38
2023-02-15T16:53:04.202Z,101660.75
2023-02-15T16:55:39.662Z,101675.66
2023-02-15T16:58:17.480Z,101652.56
2023-02-15T17:00:48.909Z,101663.09
2023-02-15T17:03:25.030Z,101646.25
2023-02-15T17:06:01.813Z,101664.75
2023-02-15T17:08:35.446Z,101665.50
2023-02-15T17:11:20.044Z,101650.28
2023-02-15T17:14:15.100Z,101672.34
2023-02-15T17:16:53.378Z,101675.78
2023-02-15T17:19:30.323Z,101675.72
2023-02-15T17:22:07.601Z,101668.53
2023-02-15T17:24:51.983Z,101671.06
2023-02-15T17:27:29.477Z,101647.06
2023-02-15T17:30:15.995Z,101662.94
2023-02-15T17:33:02.755Z,101664.56
2023-02-15T17:35:34.300Z,101668.91
2023-02-15T17:38:17.687Z,101665.19
2023-02-15T17:40:49.030Z,101678.38
2023-02-15T17:43:20.353Z,101671.28
2023-02-15T17:45:52.714Z,101663.16
2023-02-15T17:48:36.378Z,101682.56
2023-02-15T17:51:13.496Z,101675.34
2023-02-15T17:54:04.387Z,101688.53
2023-02-15T17:56:37.077Z,101661.88
2023-02-15T17:59:09.458Z,101680.47
2023-02-15T18:02:06.251Z,101675.97
2023-02-15T18:04:56.632Z,101683.69
2023-02-15T18:07:47.719Z,101679.97
2023-02-15T18:10:37.827Z,101675.38
2023-02-15T18:13:09.089Z,101677.91
2023-02-15T18:15:40.397Z,101676.06
2023-02-15T18:18:13.281Z,101668.00
2023-02-15T18:20:44.730Z,101673.16
2023-02-15T18:23:16.117Z,101641.16
2023-02-15T18:25:47.392Z,101662.34
2023-02-15T18:28:18.639Z,101665.78
2023-02-15T18:30:51.007Z,101664.78
2023-02-15T18:33:39.764Z,101651.56
2023-02-15T18:36:20.406Z,101655.03
2023-02-15T18:38:53.326Z,101640.81
2023-02-15T18:41:25.120Z,101650.53
2023-02-15T18:43:56.783Z,101647.91
2023-02-15T18:46:28.138Z,101637.38
2023-02-15T18:48:59.459Z,101634.72
2023-02-15T18:51:31.649Z,101632.97
2023-02-15T18:54:02.981Z,101636.25
2023-02-15T18:56:34.277Z,101653.16
2023-02-15T18:59:05.587Z,101626.66
2023-02-15T19:01:36.914Z,101646.13
2023-02-15T19:04:08.209Z,101638.97
2023-02-15T19:06:45.968Z,101603.44
2023-02-15T19:09:21.181Z,101649.41
2023-02-15T19:11:56.020Z,101657.41
2023-02-15T19:14:32.282Z,101647.72
2023-02-15T19:17:04.057Z,101635.44
2023-02-15T19:19:35.333Z,101637.13
2023-02-15T19:22:08.882Z,101626.53
2023-02-15T19:24:44.008Z,101626.59
2023-02-15T19:27:35.755Z,101623.94
2023-02-15T19:30:18.441Z,101599.06
2023-02-15T19:32:49.961Z,101589.34
2023-02-15T19:35:23.539Z,101614.16
2023-02-15T19:37:57.878Z,101585.81
2023-02-15T19:40:31.660Z,101616.75
2023-02-15T19:43:03.970Z,101625.44
2023-02-15T19:45:35.232Z,101631.63
2023-02-15T19:48:06.592Z,101631.63
2023-02-15T19:50:38.017Z,101626.22
2023-02-15T19:53:21.166Z,101630.59
2023-02-15T19:55:53.118Z,101643.66
2023-02-15T19:58:24.491Z,101641.81
2023-02-15T20:00:55.851Z,101638.16
2023-02-15T20:03:27.155Z,101638.00
2023-02-15T20:05:58.541Z,101648.50
2023-02-15T20:08:31.314Z,101633.25
2023-02-15T20:11:03.004Z,101650.03
2023-02-15T20:13:34.480Z,101599.44
2023-02-15T20:16:08.242Z,101613.47
2023-02-15T20:18:39.538Z,101648.81
2023-02-15T20:21:14.965Z,101641.84
2023-02-15T20:23:46.795Z,101644.41
2023-02-15T20:26:29.575Z,101629.50
2023-02-15T20:29:01.966Z,101609.06
2023-02-15T20:31:33.451Z,101616.09
2023-02-15T20:34:04.871Z,101623.25
2023-02-15T20:36:37.649Z,101609.97
2023-02-15T20:39:17.145Z,101611.03
2023-02-15T20:41:48.552Z,101609.19
2023-02-15T20:44:25.693Z,101605.84
2023-02-15T20:46:58.968Z,101609.41
2023-02-15T20:49:30.428Z,101614.69
2023-02-15T20:52:03.771Z,101606.88
2023-02-15T20:54:35.938Z,101609.53
2023-02-15T20:57:12.205Z,101590.06
2023-02-15T20:59:43.516Z,101605.31
2023-02-15T21:02:23.667Z,101598.97
2023-02-15T21:04:55.427Z,101611.44
2023-02-15T21:07:26.834Z,101609.72
2023-02-15T21:10:00.145Z,101578.75
2023-02-15T21:12:31.557Z,101612.38
2023-02-15T21:15:03.176Z,101612.38
2023-02-15T21:17:34.447Z,101608.84
2023-02-15T21:20:06.419Z,101603.53
2023-02-15T21:22:38.085Z,101612.28
2023-02-15T21:25:15.700Z,101586.53
2023-02-15T21:27:47.007Z,101623.53
2023-02-15T21:30:21.624Z,101586.34
2023-02-15T21:32:53.320Z,101611.97
2023-02-15T21:35:24.680Z,101581.72
2023-02-15T21:37:56.242Z,101599.41
2023-02-15T21:40:30.667Z,101613.50
2023-02-15T21:43:20.371Z,101619.56
2023-02-15T21:46:10.126Z,101584.19
2023-02-15T21:48:41.453Z,101604.56
2023-02-15T21:51:31.473Z,101605.34
2023-02-15T21:54:02.741Z,101597.47
2023-02-15T21:56:34.008Z,101606.19
2023-02-15T21:59:12.779Z,101598.25
2023-02-15T22:01:49.689Z,101599.00
2023-02-15T22:04:24.995Z,101602.41
2023-02-15T22:06:56.663Z,101604.97
2023-02-15T22:09:28.120Z,101599.69
2023-02-15T22:11:59.463Z,101602.97
2023-02-15T22:14:37.232Z,101615.41
2023-02-15T22:17:28.030Z,101613.63
2023-02-15T22:19:59.291Z,101601.06
2023-02-15T22:22:30.771Z,101611.75
2023-02-15T22:25:02.057Z,101604.59
2023-02-15T22:27:38.943Z,101602.75
2023-02-15T22:30:17.477Z,101586.72
2023-02-15T22:32:49.103Z,101603.53
2023-02-15T22:35:26.595Z,101601.69
2023-02-15T22:37:58.246Z,101600.75
2023-02-15T22:40:34.282Z,101548.34
2023-02-15T22:43:06.408Z,101593.56
2023-02-15T22:45:37.801Z,101593.50
2023-02-15T22:48:10.885Z,101598.66
2023-02-15T22:50:42.210Z,101587.06
2023-02-15T22:53:13.470Z,101603.03
2023-02-15T22:55:45.809Z,101596.81
2023-02-15T22:58:21.147Z,101593.25
2023-02-15T23:00:52.495Z,101579.22
2023-02-15T23:03:26.068Z,101573.84
2023-02-15T23:05:57.397Z,101554.38
2023-02-15T23:08:28.686Z,101579.19
2023-02-15T23:11:00.391Z,101558.81
2023-02-15T23:13:32.958Z,101554.53
2023-02-15T23:16:06.374Z,101566.78
2023-02-15T23:18:40.029Z,101566.91
2023-02-15T23:21:31.518Z,101567.00
2023-02-15T23:24:24.152Z,101573.13
2023-02-15T23:27:15.612Z,101575.81
2023-02-15T23:29:46.978Z,101573.09
2023-02-15T23:32:20.254Z,101573.97
2023-02-15T23:34:51.613Z,101557.03
2023-02-15T23:37:22.913Z,101574.72
2023-02-15T23:40:13.237Z,101559.69
2023-02-15T23:42:44.539Z,101576.44
2023-02-15T23:45:23.444Z,101575.56
2023-02-15T23:48:13.687Z,101532.94
2023-02-15T23:50:44.959Z,101558.66
2023-02-15T23:53:16.204Z,101574.59
2023-02-15T23:55:47.878Z,101532.31
2023-02-15T23:58:22.268Z,101568.50
